Terminal Aerodrome Forecast
Issued by NWS Cleveland, OH

Home | Current Version | Previous Version | Text Only | Print | Product List | Glossary Off
Versions: 1 2 3 4 5 6 7 8 9 10 11 12 13 14 15 16 17 18 19 20 21

000
FTUS41 KCLE 251300 AAA
TAFTOL
TAF AMD
KTOL 251344Z 2514/2612 VRB03KT P6SM BKN060
     FM251500 16004KT P6SM SCT030
     FM251900 14006KT P6SM BKN040
     FM260000 VRB03KT P6SM SCT100=

USA.gov is the U.S. government's official web portal to all federal, state and local government web resources and services.